Time;durP1;ratioP1;P1;durP2;ratioP2;P2;SDS_P1;SDS_P2;PMS_P1;PMS_P2;Temp;Humidity;BMP_temperature;BMP_pressure;BME280_temperature;BME280_humidity;BME280_pressure;Samples;Min_cycle;Max_cycle;Signal;HPM_P1;HPM_P2
2023/08/14 00:00:31;;;;;;;2.28;2.08;;;26.50;67.90;;;;;;5042109;28;20037;-36
2023/08/14 00:02:57;;;;;;;2.95;1.75;;;26.50;68.40;;;;;;5045932;28;20037;-35
2023/08/14 00:05:23;;;;;;;2.47;1.93;;;26.50;68.70;;;;;;5045039;28;20142;-36
2023/08/14 00:07:49;;;;;;;2.40;2.20;;;26.50;68.90;;;;;;5053111;28;20037;-36
2023/08/14 00:10:16;;;;;;;2.00;1.90;;;26.50;69.10;;;;;;5063768;28;20060;-36
2023/08/14 00:12:42;;;;;;;2.30;2.10;;;26.50;69.30;;;;;;5069171;28;20033;-36
2023/08/14 00:15:08;;;;;;;2.10;1.90;;;26.60;69.60;;;;;;5055126;28;20028;-35
2023/08/14 00:17:34;;;;;;;2.33;2.15;;;26.60;69.90;;;;;;5056905;28;20290;-36
2023/08/14 00:20:01;;;;;;;2.40;2.20;;;26.60;70.10;;;;;;5045677;28;20151;-36
2023/08/14 00:22:27;;;;;;;;;;;26.60;70.30;;;;;;5064043;28;20025;-36
2023/08/14 00:24:53;;;;;;;2.60;2.40;;;26.60;70.50;;;;;;5054340;28;19994;-36
2023/08/14 00:27:21;;;;;;;2.40;2.20;;;26.60;70.70;;;;;;5055098;28;20044;-43
2023/08/14 00:29:47;;;;;;;2.35;2.15;;;26.60;70.90;;;;;;5054572;28;20025;-36
2023/08/14 00:32:13;;;;;;;2.13;1.92;;;26.60;71.00;;;;;;5058332;28;20032;-36
2023/08/14 00:34:39;;;;;;;2.22;2.03;;;26.70;71.20;;;;;;5056728;28;20041;-36
2023/08/14 00:37:05;;;;;;;2.13;1.97;;;26.70;71.40;;;;;;5051427;28;20045;-36
2023/08/14 00:39:31;;;;;;;2.37;2.17;;;26.70;71.50;;;;;;5048374;28;20029;-37
2023/08/14 00:41:57;;;;;;;2.55;2.13;;;26.70;71.50;;;;;;5045968;28;20270;-36
2023/08/14 00:44:24;;;;;;;2.67;2.17;;;26.70;71.80;;;;;;5050068;28;20029;-36
2023/08/14 00:46:50;;;;;;;2.50;2.30;;;26.70;71.80;;;;;;5044020;28;20040;-36
2023/08/14 00:49:16;;;;;;;2.03;1.92;;;26.70;71.80;;;;;;5044916;28;22073;-36
2023/08/14 00:51:42;;;;;;;2.33;2.13;;;26.70;72.00;;;;;;5044191;28;20493;-36
2023/08/14 00:54:08;;;;;;;2.43;2.23;;;26.80;72.10;;;;;;5049670;28;20296;-36
2023/08/14 00:56:34;;;;;;;2.55;2.35;;;26.80;72.30;;;;;;5049109;28;20032;-36
2023/08/14 00:59:00;;;;;;;2.50;2.30;;;26.80;72.40;;;;;;5054144;28;20039;-36
2023/08/14 01:01:27;;;;;;;2.53;2.33;;;26.80;72.60;;;;;;5033462;28;20033;-36
2023/08/14 01:03:53;;;;;;;2.27;2.10;;;26.80;72.60;;;;;;5046017;28;20021;-36
2023/08/14 01:06:19;;;;;;;2.70;2.45;;;26.80;72.60;;;;;;5048465;28;20045;-36
2023/08/14 01:08:45;;;;;;;3.37;2.30;;;26.80;72.70;;;;;;5069636;28;20033;-35
2023/08/14 01:11:28;;;;;;;2.60;2.40;;;26.80;72.80;;;;;;5069070;28;20039;-36
2023/08/14 01:14:09;;;;;;;2.92;2.60;;;26.80;72.90;;;;;;5037926;28;20398;-36
2023/08/14 01:16:38;;;;;;;2.75;2.58;;;26.90;73.00;;;;;;5035442;28;20549;-35
2023/08/14 01:19:05;;;;;;;2.95;2.40;;;26.90;73.10;;;;;;5046358;28;20033;-36
2023/08/14 01:21:46;;;;;;;2.90;2.60;;;26.90;73.10;;;;;;5042115;28;20067;-36
2023/08/14 01:24:23;;;;;;;2.53;2.22;;;26.90;73.10;;;;;;5050523;28;20138;-36
2023/08/14 01:26:50;;;;;;;2.35;2.15;;;26.90;73.10;;;;;;5050929;28;20036;-36
2023/08/14 01:29:16;;;;;;;2.50;2.20;;;26.90;73.20;;;;;;5072403;28;20048;-36
2023/08/14 01:31:42;;;;;;;2.45;2.25;;;26.90;73.30;;;;;;5065208;28;20032;-36
2023/08/14 01:34:09;;;;;;;2.60;2.40;;;26.90;73.20;;;;;;5065123;28;20096;-36
2023/08/14 01:36:57;;;;;;;2.85;2.65;;;26.90;73.40;;;;;;5047151;28;20033;-36
2023/08/14 01:39:26;;;;;;;3.35;3.00;;;26.90;73.40;;;;;;5031599;28;20030;-36
2023/08/14 01:42:08;;;;;;;3.13;2.88;;;26.90;73.30;;;;;;5027384;28;20037;-36
2023/08/14 01:44:34;;;;;;;2.75;2.40;;;27.00;73.60;;;;;;5029974;28;20044;-36
2023/08/14 01:47:00;;;;;;;3.40;3.10;;;27.00;73.50;;;;;;5029599;28;20043;-36
2023/08/14 01:49:27;;;;;;;3.17;2.87;;;27.00;73.50;;;;;;5030088;28;20029;-35
2023/08/14 01:51:53;;;;;;;3.42;2.72;;;26.90;73.60;;;;;;5026008;28;20442;-36
2023/08/14 01:54:20;;;;;;;2.73;2.40;;;27.00;73.60;;;;;;5041557;28;20029;-36
2023/08/14 01:56:46;;;;;;;3.55;2.45;;;27.00;73.60;;;;;;5023635;28;20040;-36
2023/08/14 01:59:12;;;;;;;2.85;2.65;;;27.00;73.60;;;;;;5040681;28;20029;-36
2023/08/14 02:01:38;;;;;;;2.73;2.53;;;27.00;73.60;;;;;;5039097;28;20037;-36
2023/08/14 02:04:07;;;;;;;2.78;2.58;;;27.00;74.30;;;;;;5041867;28;20258;-36
2023/08/14 02:06:33;;;;;;;2.83;2.45;;;27.00;73.60;;;;;;5037871;28;20079;-36
2023/08/14 02:08:59;;;;;;;2.40;2.20;;;27.00;73.70;;;;;;5054596;28;20088;-36
2023/08/14 02:11:26;;;;;;;2.78;2.10;;;27.00;73.70;;;;;;5057221;28;22347;-36
2023/08/14 02:13:52;;;;;;;3.20;2.67;;;27.00;73.70;;;;;;5058929;28;20033;-36
2023/08/14 02:16:18;;;;;;;3.03;2.47;;;27.00;73.80;;;;;;5060600;28;20305;-36
2023/08/14 02:18:44;;;;;;;2.83;2.50;;;27.00;73.80;;;;;;5052788;28;20040;-36
2023/08/14 02:21:10;;;;;;;2.67;2.47;;;27.00;73.80;;;;;;5053505;28;20489;-35
2023/08/14 02:23:36;;;;;;;3.08;2.78;;;27.00;73.80;;;;;;5062784;28;20274;-36
2023/08/14 02:26:03;;;;;;;2.73;2.53;;;27.00;73.80;;;;;;5054979;28;20635;-36
2023/08/14 02:28:29;;;;;;;2.50;2.30;;;27.00;73.90;;;;;;5075969;28;20025;-37
2023/08/14 02:30:55;;;;;;;2.93;2.70;;;27.00;73.90;;;;;;5056215;28;20057;-36
2023/08/14 02:33:21;;;;;;;2.33;2.13;;;27.00;73.90;;;;;;5054588;28;20048;-35
2023/08/14 02:35:47;;;;;;;2.90;2.60;;;27.00;74.00;;;;;;5063402;28;20025;-36
2023/08/14 02:38:13;;;;;;;3.17;2.67;;;27.00;74.00;;;;;;5050418;28;20032;-36
2023/08/14 02:40:41;;;;;;;2.72;2.53;;;27.00;74.00;;;;;;5043884;28;20659;-35
2023/08/14 02:43:07;;;;;;;3.00;2.70;;;27.10;74.10;;;;;;5046933;28;20037;-36
2023/08/14 02:45:35;;;;;;;3.50;3.20;;;27.00;74.00;;;;;;5046198;28;20314;-36
2023/08/14 02:48:01;;;;;;;2.95;2.67;;;27.00;74.00;;;;;;5044426;28;20087;-36
2023/08/14 02:50:27;;;;;;;2.93;2.70;;;27.10;74.20;;;;;;5044552;28;20048;-36
2023/08/14 02:52:53;;;;;;;3.50;3.20;;;27.10;74.20;;;;;;5040483;28;20036;-35
2023/08/14 02:55:19;;;;;;;2.90;2.40;;;27.10;74.90;;;;;;5039935;28;22578;-36
2023/08/14 02:57:46;;;;;;;5.85;2.30;;;27.10;74.20;;;;;;5039670;28;20099;-36
2023/08/14 03:00:12;;;;;;;2.90;2.70;;;27.10;74.20;;;;;;5040105;28;20157;-36
2023/08/14 03:02:39;;;;;;;2.75;2.55;;;27.10;74.30;;;;;;5040446;28;20281;-36
2023/08/14 03:05:05;;;;;;;2.63;2.42;;;27.10;74.20;;;;;;5038198;28;20029;-36
2023/08/14 03:07:31;;;;;;;3.00;2.80;;;27.10;74.30;;;;;;5042560;28;20051;-36
2023/08/14 03:09:57;;;;;;;2.83;2.63;;;27.10;74.30;;;;;;5057853;28;20275;-36
2023/08/14 03:12:23;;;;;;;2.60;2.40;;;27.10;74.50;;;;;;5053990;28;20059;-36
2023/08/14 03:14:49;;;;;;;2.67;2.47;;;27.10;74.40;;;;;;5056429;28;20025;-36
2023/08/14 03:17:16;;;;;;;2.93;2.63;;;27.10;74.40;;;;;;5054189;28;20033;-36
2023/08/14 03:19:42;;;;;;;2.73;2.40;;;27.10;74.50;;;;;;5049184;28;20097;-36
2023/08/14 03:22:08;;;;;;;2.70;2.50;;;27.10;74.40;;;;;;5048209;28;20282;-35
2023/08/14 03:24:34;;;;;;;3.95;2.40;;;27.10;74.40;;;;;;5055423;28;20033;-36
2023/08/14 03:27:01;;;;;;;2.97;2.45;;;27.10;74.40;;;;;;5059867;28;20044;-36
2023/08/14 03:29:27;;;;;;;3.22;2.25;;;27.00;74.30;;;;;;5054983;28;20051;-36
2023/08/14 03:31:53;;;;;;;2.70;2.50;;;27.00;74.30;;;;;;5064818;28;20083;-35
2023/08/14 03:34:20;;;;;;;2.75;2.45;;;27.10;74.30;;;;;;5069802;28;20045;-36
2023/08/14 03:36:46;;;;;;;3.05;2.70;;;27.10;74.40;;;;;;5043708;28;20029;-36
2023/08/14 03:39:12;;;;;;;2.63;2.43;;;27.00;74.30;;;;;;5064058;28;20037;-36
2023/08/14 03:41:38;;;;;;;3.33;2.40;;;27.10;74.40;;;;;;5047556;28;20051;-36
2023/08/14 03:44:05;;;;;;;3.13;2.50;;;27.10;74.30;;;;;;5051388;28;20059;-36
2023/08/14 03:46:31;;;;;;;2.70;2.50;;;27.00;74.20;;;;;;5053949;28;20050;-36
2023/08/14 03:48:58;;;;;;;2.53;2.20;;;27.00;74.20;;;;;;5051782;28;20645;-36
2023/08/14 03:51:24;;;;;;;3.17;2.10;;;27.00;74.30;;;;;;5049283;28;20312;-36
2023/08/14 03:53:50;;;;;;;3.00;2.25;;;27.00;74.30;;;;;;5054176;28;20067;-35
2023/08/14 03:56:16;;;;;;;2.53;2.33;;;27.00;74.40;;;;;;5053183;28;20040;-36
2023/08/14 03:58:42;;;;;;;2.53;2.30;;;27.00;74.50;;;;;;5059739;28;20029;-36
2023/08/14 04:01:08;;;;;;;2.17;2.00;;;27.00;74.50;;;;;;5068453;28;20273;-35
2023/08/14 04:03:35;;;;;;;2.60;2.40;;;27.00;74.40;;;;;;5068996;28;20189;-36
2023/08/14 04:06:01;;;;;;;2.30;2.20;;;27.00;74.40;;;;;;5064400;28;20037;-36
2023/08/14 04:08:27;;;;;;;2.50;2.17;;;27.00;74.30;;;;;;5065937;28;20033;-36
2023/08/14 04:10:59;;;;;;;2.67;2.33;;;27.00;74.30;;;;;;5066252;28;20111;-36
2023/08/14 04:13:26;;;;;;;2.45;2.22;;;27.00;74.20;;;;;;5066061;28;20738;-36
2023/08/14 04:16:03;;;;;;;2.55;2.13;;;27.00;74.20;;;;;;5066408;28;20032;-36
2023/08/14 04:18:30;;;;;;;2.53;2.30;;;27.00;74.20;;;;;;5065785;28;20025;-36
2023/08/14 04:20:56;;;;;;;2.50;2.30;;;27.00;74.20;;;;;;5065313;28;20052;-37
2023/08/14 04:23:26;;;;;;;2.60;2.38;;;27.00;74.30;;;;;;5062998;28;20037;-36
2023/08/14 04:25:52;;;;;;;3.38;2.55;;;27.00;74.20;;;;;;5058594;28;20036;-36
2023/08/14 04:28:18;;;;;;;2.45;2.25;;;27.00;74.20;;;;;;5037191;28;20029;-36
2023/08/14 04:30:45;;;;;;;2.97;2.37;;;27.00;74.40;;;;;;5058124;28;20048;-36
2023/08/14 04:33:11;;;;;;;2.40;2.20;;;27.00;74.50;;;;;;5057484;28;20901;-35
2023/08/14 04:35:37;;;;;;;2.45;2.25;;;27.00;74.50;;;;;;5055903;28;20371;-36
2023/08/14 04:38:04;;;;;;;2.70;2.50;;;27.00;74.60;;;;;;5057809;28;20028;-36
2023/08/14 04:40:30;;;;;;;2.78;2.20;;;27.00;74.60;;;;;;5053604;28;20033;-35
2023/08/14 04:42:56;;;;;;;2.03;1.90;;;27.00;74.60;;;;;;5059890;28;20239;-36
2023/08/14 04:45:22;;;;;;;3.75;2.35;;;26.90;74.50;;;;;;5058644;28;20097;-35
2023/08/14 04:47:49;;;;;;;2.47;2.33;;;26.90;74.50;;;;;;5050256;28;20037;-36
2023/08/14 04:50:15;;;;;;;2.70;2.50;;;26.90;74.40;;;;;;5056215;28;20460;-36
2023/08/14 04:52:41;;;;;;;2.50;2.30;;;26.90;74.40;;;;;;5055088;28;20037;-36
2023/08/14 04:55:08;;;;;;;2.57;2.20;;;26.90;74.20;;;;;;5067409;28;20478;-36
2023/08/14 04:57:34;;;;;;;3.05;2.42;;;26.90;74.20;;;;;;5075599;28;20029;-36
2023/08/14 05:00:00;;;;;;;2.53;2.33;;;26.90;74.20;;;;;;5070602;28;20037;-36
2023/08/14 05:02:29;;;;;;;2.73;2.53;;;26.90;74.20;;;;;;5070279;28;20344;-36
2023/08/14 05:04:55;;;;;;;2.33;2.13;;;26.90;74.20;;;;;;5072881;28;20036;-35
2023/08/14 05:07:22;;;;;;;2.53;2.20;;;26.90;74.20;;;;;;5062598;28;20041;-35
2023/08/14 05:09:51;;;;;;;2.28;2.10;;;26.90;74.20;;;;;;5054789;28;20025;-36
2023/08/14 05:12:17;;;;;;;2.30;2.10;;;26.90;74.40;;;;;;5051828;28;20033;-36
2023/08/14 05:14:43;;;;;;;2.37;2.17;;;26.90;74.60;;;;;;5050958;28;20029;-36
2023/08/14 05:17:09;;;;;;;2.43;2.23;;;26.90;74.60;;;;;;5047069;28;20430;-36
2023/08/14 05:19:35;;;;;;;2.30;2.10;;;26.90;74.70;;;;;;5046712;28;20025;-36
2023/08/14 05:22:01;;;;;;;2.57;2.03;;;26.90;74.70;;;;;;5050720;28;20565;-36
2023/08/14 05:24:27;;;;;;;2.60;2.20;;;26.90;74.80;;;;;;5053496;28;20048;-36
2023/08/14 05:26:53;;;;;;;2.43;2.23;;;26.90;74.90;;;;;;5053801;28;20041;-36
2023/08/14 05:29:19;;;;;;;2.53;2.27;;;26.90;74.80;;;;;;5053599;28;20063;-35
2023/08/14 05:31:46;;;;;;;2.50;2.03;;;26.90;74.80;;;;;;5051527;28;20029;-36
2023/08/14 05:34:12;;;;;;;2.00;1.90;;;26.90;74.70;;;;;;5050986;28;20060;-36
2023/08/14 05:36:38;;;;;;;3.10;2.33;;;26.80;74.60;;;;;;5052301;28;20025;-36
2023/08/14 05:39:05;;;;;;;2.33;2.13;;;26.80;74.50;;;;;;5066165;28;20040;-36
2023/08/14 05:41:31;;;;;;;2.13;2.03;;;26.80;74.50;;;;;;5076404;28;20035;-36
2023/08/14 05:43:58;;;;;;;2.67;2.07;;;26.80;74.50;;;;;;5072400;28;20546;-35
2023/08/14 05:46:24;;;;;;;2.20;2.00;;;26.80;74.40;;;;;;5064604;28;20044;-35
2023/08/14 05:48:51;;;;;;;2.33;2.13;;;26.80;74.40;;;;;;5071160;28;20449;-36
2023/08/14 05:51:17;;;;;;;;;;;26.80;74.40;;;;;;5064713;28;20036;-37
2023/08/14 05:53:43;;;;;;;3.03;2.05;;;26.80;74.70;;;;;;5066818;28;20273;-36
2023/08/14 05:56:09;;;;;;;2.43;2.23;;;26.80;74.70;;;;;;5056145;28;20059;-36
2023/08/14 05:58:35;;;;;;;2.10;1.90;;;26.80;75.00;;;;;;5060419;28;20063;-36
2023/08/14 06:01:02;;;;;;;2.20;2.00;;;26.80;75.00;;;;;;5052500;28;20032;-35
2023/08/14 06:03:28;;;;;;;2.78;2.00;;;26.80;75.00;;;;;;5054148;28;20025;-35
2023/08/14 06:05:54;;;;;;;3.73;2.37;;;26.80;75.00;;;;;;5059598;28;20037;-35
2023/08/14 06:08:20;;;;;;;2.40;2.20;;;26.80;75.10;;;;;;5042388;28;20290;-36
2023/08/14 06:10:47;;;;;;;2.33;2.10;;;26.80;75.00;;;;;;5037145;28;20038;-37
2023/08/14 06:13:13;;;;;;;2.83;2.27;;;26.80;75.00;;;;;;5039858;28;20029;-36
2023/08/14 06:15:39;;;;;;;2.40;2.00;;;26.70;74.70;;;;;;5039876;28;20064;-35
2023/08/14 06:18:05;;;;;;;2.27;2.07;;;26.70;74.70;;;;;;5040082;28;20047;-36
2023/08/14 06:20:31;;;;;;;2.15;2.05;;;26.80;74.80;;;;;;5040183;28;20281;-36
2023/08/14 06:22:57;;;;;;;2.90;2.00;;;26.80;74.60;;;;;;5040720;28;20029;-36
2023/08/14 06:25:28;;;;;;;1.70;1.60;;;26.80;74.70;;;;;;5044675;28;20053;-36
2023/08/14 06:27:54;;;;;;;2.58;2.10;;;26.80;74.70;;;;;;5047411;28;20040;-35
2023/08/14 06:30:21;;;;;;;2.10;1.90;;;26.70;74.60;;;;;;5044443;28;20029;-36
2023/08/14 06:32:48;;;;;;;2.20;2.00;;;26.70;74.60;;;;;;5046007;28;20099;-35
2023/08/14 06:35:14;;;;;;;2.08;1.88;;;26.70;74.70;;;;;;5045212;28;20040;-36
2023/08/14 06:37:40;;;;;;;2.10;1.90;;;26.70;74.90;;;;;;5043825;28;20045;-35
2023/08/14 06:40:08;;;;;;;2.10;1.88;;;26.70;74.90;;;;;;5068976;28;20036;-36
2023/08/14 06:42:34;;;;;;;1.60;1.50;;;26.70;75.10;;;;;;5070043;28;20581;-35
2023/08/14 06:45:00;;;;;;;2.80;2.05;;;26.70;75.20;;;;;;5068204;28;20224;-35
2023/08/14 06:47:26;;;;;;;2.07;1.87;;;26.70;75.10;;;;;;5060128;28;20041;-35
2023/08/14 06:49:52;;;;;;;2.20;1.88;;;26.70;75.20;;;;;;5070278;28;20033;-36
2023/08/14 06:52:18;;;;;;;1.92;1.83;;;26.70;75.20;;;;;;5074626;28;20100;-36
2023/08/14 06:54:45;;;;;;;2.10;1.90;;;26.70;75.10;;;;;;5072350;28;20050;-35
2023/08/14 06:57:11;;;;;;;2.20;2.00;;;26.70;75.00;;;;;;5057787;28;20293;-35
2023/08/14 06:59:37;;;;;;;1.88;1.77;;;26.70;74.90;;;;;;5061611;28;20025;-35
2023/08/14 07:02:03;;;;;;;2.00;1.70;;;26.70;74.90;;;;;;5061002;28;20085;-35
2023/08/14 07:04:29;;;;;;;1.80;1.70;;;26.70;74.70;;;;;;5069576;28;20036;-36
2023/08/14 07:06:55;;;;;;;1.98;1.83;;;26.70;74.80;;;;;;5062327;28;20599;-35
2023/08/14 07:09:22;;;;;;;2.20;2.03;;;26.60;74.70;;;;;;5029538;28;20402;-35
2023/08/14 07:11:48;;;;;;;2.10;1.90;;;26.60;74.60;;;;;;5043540;28;20282;-36
2023/08/14 07:14:14;;;;;;;2.95;1.88;;;26.60;74.50;;;;;;5043127;28;20055;-36
2023/08/14 07:16:40;;;;;;;2.40;2.20;;;26.60;74.80;;;;;;5043282;28;20843;-36
2023/08/14 07:19:06;;;;;;;2.35;2.15;;;26.60;74.90;;;;;;5043771;28;20455;-37
2023/08/14 07:21:33;;;;;;;2.30;2.10;;;26.60;75.10;;;;;;5027057;28;20132;-36
2023/08/14 07:23:59;;;;;;;2.43;1.93;;;26.60;75.20;;;;;;5025267;28;20116;-36
2023/08/14 07:26:25;;;;;;;1.90;1.80;;;26.60;75.20;;;;;;5037503;28;20033;-36
2023/08/14 07:28:51;;;;;;;5.23;2.13;;;26.60;75.30;;;;;;5041062;28;20059;-35
2023/08/14 07:31:17;;;;;;;2.10;1.90;;;26.60;75.30;;;;;;5046816;28;20036;-35
2023/08/14 07:33:43;;;;;;;2.00;1.90;;;26.60;75.30;;;;;;5044100;28;20298;-36
2023/08/14 07:36:10;;;;;;;1.90;1.80;;;26.60;75.10;;;;;;5045611;28;20024;-35
2023/08/14 07:38:36;;;;;;;3.77;1.67;;;26.60;74.90;;;;;;5039672;28;20045;-35
2023/08/14 07:41:02;;;;;;;1.90;1.77;;;26.60;75.00;;;;;;5061618;28;20090;-36
2023/08/14 07:43:28;;;;;;;2.13;1.93;;;26.50;74.80;;;;;;5059827;28;20284;-36
2023/08/14 07:45:54;;;;;;;1.97;1.80;;;26.50;74.90;;;;;;5059764;28;20286;-36
2023/08/14 07:48:21;;;;;;;1.92;1.65;;;26.50;74.80;;;;;;5060717;28;20028;-36
2023/08/14 07:50:53;;;;;;;2.47;1.92;;;26.50;74.80;;;;;;5062065;28;20036;-36
2023/08/14 07:53:20;;;;;;;2.22;2.03;;;26.50;74.70;;;;;;5061938;28;20029;-36
2023/08/14 07:55:48;;;;;;;2.95;1.80;;;26.50;74.70;;;;;;5076090;28;20028;-35
2023/08/14 07:58:15;;;;;;;2.10;1.90;;;26.50;74.80;;;;;;5068895;28;20032;-36
2023/08/14 08:00:40;;;;;;;;;;;26.50;75.00;;;;;;5064404;28;20051;-36
2023/08/14 08:03:07;;;;;;;1.77;1.55;;;26.50;75.00;;;;;;5067315;28;19976;-36
2023/08/14 08:05:33;;;;;;;2.73;1.90;;;26.50;75.10;;;;;;5069250;28;20040;-36
2023/08/14 08:08:01;;;;;;;1.98;1.73;;;26.50;75.30;;;;;;5067717;28;20036;-36
2023/08/14 08:10:27;;;;;;;2.10;1.90;;;26.50;75.20;;;;;;5048646;28;20100;-36
2023/08/14 08:12:53;;;;;;;2.35;2.15;;;26.50;75.20;;;;;;5049897;28;20026;-35
2023/08/14 08:15:20;;;;;;;2.20;1.73;;;26.50;75.30;;;;;;5049297;28;20041;-36
2023/08/14 08:17:46;;;;;;;2.80;1.90;;;26.40;75.00;;;;;;5050445;28;22050;-36
2023/08/14 08:20:12;;;;;;;2.00;1.90;;;26.40;75.00;;;;;;5051071;28;20033;-36
2023/08/14 08:22:38;;;;;;;2.03;1.60;;;26.40;74.90;;;;;;5050281;28;20280;-36
2023/08/14 08:25:05;;;;;;;1.83;1.73;;;26.40;74.90;;;;;;5052378;28;20031;-36
2023/08/14 08:27:31;;;;;;;2.17;1.42;;;26.40;74.90;;;;;;5052054;28;20051;-35
2023/08/14 08:29:57;;;;;;;1.65;1.25;;;26.40;74.90;;;;;;5049331;28;20042;-38
2023/08/14 08:32:23;;;;;;;1.90;1.70;;;26.40;74.80;;;;;;5051480;28;20052;-36
2023/08/14 08:34:49;;;;;;;2.27;1.80;;;26.40;74.90;;;;;;5051346;28;20033;-36
2023/08/14 08:37:19;;;;;;;1.70;1.60;;;26.40;75.00;;;;;;5058229;28;20047;-36
2023/08/14 08:39:45;;;;;;;1.77;1.67;;;26.40;75.00;;;;;;5074495;28;20736;-36
2023/08/14 08:42:11;;;;;;;2.30;1.80;;;26.40;75.10;;;;;;5071151;28;20041;-36
2023/08/14 08:44:38;;;;;;;2.75;1.73;;;26.40;75.10;;;;;;5072119;28;20688;-36
2023/08/14 08:47:08;;;;;;;1.50;1.40;;;26.40;75.10;;;;;;5075777;28;20095;-36
2023/08/14 08:49:35;;;;;;;1.70;1.60;;;26.40;75.10;;;;;;5069645;28;20076;-36
2023/08/14 08:52:05;;;;;;;3.00;1.58;;;26.40;75.10;;;;;;5060364;28;20032;-35
2023/08/14 08:54:31;;;;;;;1.80;1.70;;;26.40;75.10;;;;;;5046837;28;20037;-35
2023/08/14 08:56:58;;;;;;;1.80;1.53;;;26.30;75.20;;;;;;5041533;28;20029;-36
2023/08/14 08:59:25;;;;;;;;;;;26.30;75.10;;;;;;5045455;28;20040;-35
2023/08/14 09:01:51;;;;;;;2.42;1.60;;;26.30;75.90;;;;;;5065917;28;19913;-36
2023/08/14 09:04:17;;;;;;;1.70;1.60;;;26.30;75.50;;;;;;5073579;28;20101;-35
2023/08/14 09:06:44;;;;;;;2.57;1.47;;;26.30;75.10;;;;;;5064539;28;20036;-36
2023/08/14 09:09:12;;;;;;;2.08;1.75;;;26.30;75.20;;;;;;5058905;28;20080;-36
2023/08/14 09:11:38;;;;;;;1.80;1.58;;;26.30;75.10;;;;;;5072311;28;20040;-36
2023/08/14 09:14:05;;;;;;;1.77;1.67;;;26.30;75.20;;;;;;5065454;28;20093;-35
2023/08/14 09:16:31;;;;;;;2.45;1.50;;;26.30;75.10;;;;;;5047960;28;20158;-35
2023/08/14 09:18:58;;;;;;;1.60;1.50;;;26.30;75.20;;;;;;5054342;28;20031;-35
2023/08/14 09:21:24;;;;;;;3.90;1.80;;;26.30;75.20;;;;;;5069117;28;20035;-36
2023/08/14 09:23:50;;;;;;;2.65;1.38;;;26.20;75.10;;;;;;5061703;28;20029;-35
2023/08/14 09:26:16;;;;;;;1.75;1.50;;;26.20;75.20;;;;;;5058079;28;20032;-35
2023/08/14 09:28:43;;;;;;;1.63;1.47;;;26.20;75.20;;;;;;5058279;28;20109;-35
2023/08/14 09:31:11;;;;;;;2.00;1.50;;;26.20;75.30;;;;;;5072074;28;20536;-35
2023/08/14 09:33:38;;;;;;;1.50;1.40;;;26.20;75.30;;;;;;5064061;28;20531;-36
2023/08/14 09:36:04;;;;;;;;;;;26.20;75.30;;;;;;5074506;28;20017;-35
2023/08/14 09:38:31;;;;;;;2.60;1.50;;;26.20;75.30;;;;;;5069614;28;19913;-36
2023/08/14 09:40:57;;;;;;;1.50;1.40;;;26.20;75.30;;;;;;5064450;28;20029;-35
2023/08/14 09:43:24;;;;;;;2.55;1.40;;;26.20;75.30;;;;;;5063208;28;20021;-36
2023/08/14 09:45:54;;;;;;;2.28;1.40;;;26.10;75.30;;;;;;5064070;28;20029;-35
2023/08/14 09:48:20;;;;;;;1.60;1.50;;;26.10;75.20;;;;;;5046302;28;20025;-35
2023/08/14 09:50:49;;;;;;;2.03;1.40;;;26.10;75.30;;;;;;5056834;28;20030;-35
2023/08/14 09:53:16;;;;;;;1.42;1.33;;;26.10;75.30;;;;;;5055009;28;20033;-35
2023/08/14 09:55:42;;;;;;;2.40;1.50;;;26.10;75.30;;;;;;5064461;28;20039;-35
2023/08/14 09:58:08;;;;;;;1.58;1.42;;;26.10;75.30;;;;;;5074774;28;20017;-35
2023/08/14 10:00:34;;;;;;;1.50;1.30;;;26.10;75.30;;;;;;5072866;28;20371;-35
2023/08/14 10:03:00;;;;;;;1.63;1.43;;;26.10;75.30;;;;;;5071506;28;20048;-36
2023/08/14 10:05:27;;;;;;;1.25;1.15;;;26.10;75.30;;;;;;5063093;28;20028;-35
2023/08/14 10:07:53;;;;;;;1.45;1.35;;;26.10;75.40;;;;;;5049429;28;20049;-36
2023/08/14 10:10:23;;;;;;;1.40;1.30;;;26.10;75.40;;;;;;5054151;28;20020;-36
2023/08/14 10:12:58;;;;;;;1.65;1.50;;;26.10;75.50;;;;;;5023869;28;20286;-35
2023/08/14 10:15:29;;;;;;;1.60;1.50;;;26.10;75.40;;;;;;5035141;28;20051;-36
2023/08/14 10:17:56;;;;;;;1.40;1.30;;;26.10;75.40;;;;;;5037940;28;20132;-35
2023/08/14 10:20:22;;;;;;;2.10;1.52;;;26.10;75.50;;;;;;5056664;28;20112;-35
2023/08/14 10:22:49;;;;;;;2.87;1.47;;;26.00;75.90;;;;;;5036624;28;20555;-37
2023/08/14 10:25:15;;;;;;;2.67;1.40;;;26.00;75.40;;;;;;5028173;28;20037;-36
2023/08/14 10:27:42;;;;;;;1.40;1.30;;;26.00;75.40;;;;;;5044652;28;20053;-36
2023/08/14 10:30:08;;;;;;;4.13;1.33;;;26.00;75.30;;;;;;5046153;28;20085;-35
2023/08/14 10:32:34;;;;;;;1.38;1.27;;;26.00;75.30;;;;;;5032974;28;20083;-35
2023/08/14 10:35:01;;;;;;;1.33;1.23;;;26.00;75.40;;;;;;5046785;28;20086;-36
2023/08/14 10:37:39;;;;;;;1.20;1.10;;;26.00;75.40;;;;;;5033552;28;20116;-35
2023/08/14 10:40:32;;;;;;;2.17;1.35;;;26.00;75.40;;;;;;5040598;28;20032;-35
2023/08/14 10:42:59;;;;;;;1.27;1.17;;;26.00;75.40;;;;;;5053096;28;20025;-36
2023/08/14 10:45:25;;;;;;;1.48;1.30;;;26.00;75.50;;;;;;5038558;28;20059;-35
2023/08/14 10:47:59;;;;;;;1.42;1.33;;;26.00;75.50;;;;;;5054594;28;20053;-35
2023/08/14 10:50:26;;;;;;;1.40;1.30;;;26.00;75.50;;;;;;5051158;28;20092;-35
2023/08/14 10:52:54;;;;;;;1.58;1.42;;;26.00;75.60;;;;;;5056743;28;20037;-35
2023/08/14 10:55:36;;;;;;;1.65;1.23;;;25.90;75.40;;;;;;5068241;28;20107;-35
2023/08/14 10:58:22;;;;;;;1.85;1.20;;;25.90;75.50;;;;;;5069669;28;20033;-36
2023/08/14 11:00:48;;;;;;;1.20;1.10;;;25.90;75.50;;;;;;5064544;28;20041;-36
2023/08/14 11:03:14;;;;;;;2.38;1.35;;;25.90;75.60;;;;;;5041920;28;20029;-35
2023/08/14 11:05:40;;;;;;;2.67;1.27;;;25.90;75.60;;;;;;5081724;28;20051;-35
2023/08/14 11:08:07;;;;;;;2.47;1.37;;;25.90;75.50;;;;;;5080330;28;20032;-35
2023/08/14 11:10:34;;;;;;;;;;;25.90;75.60;;;;;;5073569;28;20050;-36
2023/08/14 11:13:01;;;;;;;1.35;1.25;;;25.90;75.50;;;;;;5077549;28;19979;-35
2023/08/14 11:15:30;;;;;;;1.48;1.38;;;25.90;75.60;;;;;;5071476;28;20052;-35
2023/08/14 11:17:56;;;;;;;1.40;1.30;;;25.90;76.30;;;;;;5052913;28;20485;-36
2023/08/14 11:20:25;;;;;;;2.97;1.17;;;25.90;75.60;;;;;;5055476;28;20025;-35
2023/08/14 11:22:51;;;;;;;1.55;1.30;;;25.80;75.60;;;;;;5077423;28;20114;-36
2023/08/14 11:25:18;;;;;;;1.27;1.17;;;25.80;75.70;;;;;;5064038;28;20017;-36
2023/08/14 11:27:54;;;;;;;1.10;1.00;;;25.80;75.60;;;;;;5069234;28;20052;-35
2023/08/14 11:30:23;;;;;;;1.30;1.20;;;25.80;75.60;;;;;;5066736;28;20033;-35
2023/08/14 11:32:52;;;;;;;1.33;1.23;;;25.80;75.70;;;;;;5043594;28;20041;-36
2023/08/14 11:35:18;;;;;;;1.13;1.10;;;25.80;75.60;;;;;;5048562;28;20049;-35
2023/08/14 11:37:46;;;;;;;1.30;1.20;;;25.80;75.70;;;;;;5057056;28;20036;-36
2023/08/14 11:40:15;;;;;;;1.10;1.00;;;25.80;75.70;;;;;;5042608;28;20140;-36
2023/08/14 11:42:42;;;;;;;1.58;1.48;;;25.80;75.70;;;;;;5051222;28;20040;-36
2023/08/14 11:45:08;;;;;;;1.42;1.20;;;25.80;75.60;;;;;;5048566;28;20053;-35
2023/08/14 11:47:36;;;;;;;1.45;1.20;;;25.80;75.60;;;;;;5049549;28;20040;-35
2023/08/14 11:50:03;;;;;;;2.55;1.35;;;25.80;75.70;;;;;;5051070;28;20709;-35
2023/08/14 11:52:30;;;;;;;1.30;1.20;;;25.80;75.70;;;;;;5051506;28;20093;-36
2023/08/14 11:54:56;;;;;;;1.50;1.30;;;25.80;75.80;;;;;;5047560;28;20036;-36
2023/08/14 11:57:26;;;;;;;1.80;1.30;;;25.80;75.80;;;;;;5043954;28;20035;-36
2023/08/14 11:59:53;;;;;;;1.88;1.13;;;25.80;75.80;;;;;;5042518;28;20052;-36
2023/08/14 12:02:19;;;;;;;1.20;1.10;;;25.80;75.80;;;;;;5043974;28;20021;-35
2023/08/14 12:04:47;;;;;;;1.00;1.00;;;25.70;75.60;;;;;;5044767;28;20034;-36
2023/08/14 12:07:17;;;;;;;;;;;25.70;75.70;;;;;;5044632;28;20055;-35
2023/08/14 12:09:43;;;;;;;3.13;1.23;;;25.70;75.60;;;;;;5055222;28;19916;-36
2023/08/14 12:12:10;;;;;;;1.50;1.40;;;25.70;75.70;;;;;;5053681;28;20037;-36
2023/08/14 12:14:47;;;;;;;1.40;1.30;;;25.70;75.80;;;;;;5020684;28;20032;-36
2023/08/14 12:17:15;;;;;;;2.05;1.20;;;25.70;75.70;;;;;;5053945;28;20641;-35
2023/08/14 12:19:52;;;;;;;2.05;1.23;;;25.70;75.70;;;;;;5055193;28;20033;-36
2023/08/14 12:22:22;;;;;;;1.60;1.40;;;25.70;75.70;;;;;;5060631;28;20120;-36
2023/08/14 12:24:48;;;;;;;1.98;1.45;;;25.70;75.90;;;;;;5048128;28;20040;-35
2023/08/14 12:27:18;;;;;;;1.50;1.33;;;25.70;75.80;;;;;;5060126;28;20044;-36
2023/08/14 12:29:44;;;;;;;2.63;1.20;;;25.70;75.90;;;;;;5064303;28;20056;-35
2023/08/14 12:32:10;;;;;;;2.27;1.27;;;25.70;75.90;;;;;;5073256;28;20051;-36
2023/08/14 12:34:37;;;;;;;2.78;1.40;;;25.60;75.80;;;;;;5064318;28;20052;-35
2023/08/14 12:37:04;;;;;;;1.42;1.33;;;25.70;75.90;;;;;;5066248;28;20037;-36
2023/08/14 12:39:31;;;;;;;2.03;1.13;;;25.70;75.90;;;;;;5067780;28;20035;-36
2023/08/14 12:41:57;;;;;;;2.83;1.30;;;25.70;75.90;;;;;;5074831;28;20028;-36
2023/08/14 12:44:24;;;;;;;1.42;1.33;;;25.70;75.80;;;;;;5084725;28;20025;-36
2023/08/14 12:46:50;;;;;;;2.00;1.40;;;25.70;76.00;;;;;;5057854;28;20047;-35